Pagrindinis puslapis
METAR-TAF:

METAR-TAF

Oro uostai :

Šanchajaus Pudongo tarptautinis oro uostas

Šanchajus-Pudong, Kinija

platuma: 31-07N, ilguma: 121-46E, Aukštis: 4 m

Dabartinis oras

Ataskaita buvo paskelbta 28 minutes, ne 01:30 UTC
Vėjas 16 kt iš Šiaurės/Šiaurės Rytų
Temperatūra 10°C
Drėgmė 93%
Slėgis 1023 hPa
Matomumas: 6000 m
Su prošvaistėmis ne aukštis 600 ft
Apsiniaukę ne aukštis 2600 ft
lietus

METAR: ZSPD 260130Z 03008MPS 6000 -RA BKN006 OVC026 10/09 Q1023 NOSIG

Laikas: 09:58 (01:58 UTC)

Prognozė

Ataskaita buvo paskelbta 4 valandos ir 48 minutes, ne 21:10 UTC
Prognozė galioja nuo 26 metu 00 UTC su 26 metu 24 UTC
Vėjas 14 kt iš Šiaurės
Matomumas: 6000 m
Su prošvaistėmis ne aukštis 600 ft
Apsiniaukę ne aukštis 3300 ft
lietus
Tapsmas
nuo 26 metu 04 UTC su 26 metu 05 UTC
Su prošvaistėmis ne aukštis 1100 ft
Apsiniaukę ne aukštis 3300 ft

TAF: ZSPD 252110Z 2600/2624 01007MPS 6000 -RA BKN006 OVC033 TX10/2605Z TN07/2618Z BECMG 2604/2605 BKN011 OVC033

Orai ataskaitas ir orų prognozės (METAR, TAF).

turimą stotys yra geltonos ir raudonos taškus žemėlapyje.

Perkelti pele per norėdami pamatyti stoties vardą.

Tada spustelėkite, norėdami matyti oro stebėjimo ir prognozės.

Norėdami pakeisti žemėlapį: spustelėkite ant žalios mygtukų su juodo kryžiaus žemyn,; žalią mygtuką su brūkšneliu, jei norite nutolinti; arba žalių rodyklių gretimoms žemėlapius.


METAR-TAF: